sensor_id;sensor_type;location;lat;lon;timestamp;P1;durP1;ratioP1;P2;durP2;ratioP2
74793;SDS011;63320;50.768;6.724;2022-11-12T11:38:22;9.88;;;5.60;;
74793;SDS011;63320;50.768;6.724;2022-11-12T11:40:58;10.38;;;4.72;;
74793;SDS011;63320;50.768;6.724;2022-11-12T11:43:45;7.63;;;4.22;;
74793;SDS011;63320;50.768;6.724;2022-11-12T11:46:20;8.45;;;4.43;;
74793;SDS011;63320;50.768;6.724;2022-11-12T11:49:05;9.30;;;5.32;;
74793;SDS011;63320;50.768;6.724;2022-11-12T11:51:43;9.52;;;5.25;;
74793;SDS011;63320;50.768;6.724;2022-11-12T11:54:28;8.10;;;4.90;;
74793;SDS011;63320;50.768;6.724;2022-11-12T11:57:10;7.53;;;4.72;;
74793;SDS011;63320;50.768;6.724;2022-11-12T11:59:41;9.05;;;4.00;;
74793;SDS011;63320;50.768;6.724;2022-11-12T12:02:26;7.75;;;4.22;;
74793;SDS011;63320;50.768;6.724;2022-11-12T12:05:16;7.60;;;4.20;;
74793;SDS011;63320;50.768;6.724;2022-11-12T12:07:54;6.28;;;3.88;;
74793;SDS011;63320;50.768;6.724;2022-11-12T12:10:28;7.07;;;4.18;;
74793;SDS011;63320;50.768;6.724;2022-11-12T12:13:04;9.40;;;3.83;;
74793;SDS011;63320;50.768;6.724;2022-11-12T12:15:42;7.25;;;3.40;;
74793;SDS011;63320;50.768;6.724;2022-11-12T12:18:19;6.43;;;3.30;;
74793;SDS011;63320;50.768;6.724;2022-11-12T12:20:53;6.97;;;3.67;;
74793;SDS011;63320;50.768;6.724;2022-11-12T12:23:25;6.38;;;2.92;;
74793;SDS011;63320;50.768;6.724;2022-11-12T12:25:58;7.63;;;3.30;;
74793;SDS011;63320;50.768;6.724;2022-11-12T12:30:57;10.50;;;3.80;;
74793;SDS011;63320;50.768;6.724;2022-11-12T12:33:31;6.55;;;2.80;;
74793;SDS011;63320;50.768;6.724;2022-11-12T12:36:02;9.38;;;3.13;;
74793;SDS011;63320;50.768;6.724;2022-11-12T12:38:34;11.30;;;3.20;;
74793;SDS011;63320;50.768;6.724;2022-11-12T12:41:08;7.40;;;3.20;;
74793;SDS011;63320;50.768;6.724;2022-11-12T12:43:40;7.68;;;3.28;;
74793;SDS011;63320;50.768;6.724;2022-11-12T12:46:10;6.47;;;2.90;;
74793;SDS011;63320;50.768;6.724;2022-11-12T12:48:37;6.85;;;3.05;;
74793;SDS011;63320;50.768;6.724;2022-11-12T12:51:06;9.07;;;3.00;;
74793;SDS011;63320;50.768;6.724;2022-11-12T12:53:32;8.02;;;3.13;;
74793;SDS011;63320;50.768;6.724;2022-11-12T12:55:59;5.43;;;2.65;;
74793;SDS011;63320;50.768;6.724;2022-11-12T12:58:28;6.35;;;3.03;;
74793;SDS011;63320;50.768;6.724;2022-11-12T13:00:59;6.10;;;2.90;;
74793;SDS011;63320;50.768;6.724;2022-11-12T13:08:47;7.90;;;3.20;;
74793;SDS011;63320;50.768;6.724;2022-11-12T13:17:15;8.02;;;4.40;;
74793;SDS011;63320;50.768;6.724;2022-11-12T13:20:33;6.43;;;3.65;;
74793;SDS011;63320;50.768;6.724;2022-11-12T13:23:00;6.07;;;2.60;;
74793;SDS011;63320;50.768;6.724;2022-11-12T13:25:26;9.52;;;3.65;;
74793;SDS011;63320;50.768;6.724;2022-11-12T13:28:03;7.68;;;3.13;;
74793;SDS011;63320;50.768;6.724;2022-11-12T13:33:28;6.88;;;2.35;;
74793;SDS011;63320;50.768;6.724;2022-11-12T13:38:47;5.28;;;2.50;;
74793;SDS011;63320;50.768;6.724;2022-11-12T13:41:14;5.90;;;2.67;;
74793;SDS011;63320;50.768;6.724;2022-11-12T13:43:42;7.70;;;3.30;;
74793;SDS011;63320;50.768;6.724;2022-11-12T13:46:21;6.35;;;2.97;;
74793;SDS011;63320;50.768;6.724;2022-11-12T13:48:51;8.27;;;3.78;;
74793;SDS011;63320;50.768;6.724;2022-11-12T13:51:25;8.30;;;3.85;;
74793;SDS011;63320;50.768;6.724;2022-11-12T13:54:01;7.13;;;3.40;;
74793;SDS011;63320;50.768;6.724;2022-11-12T13:56:46;8.02;;;2.63;;
74793;SDS011;63320;50.768;6.724;2022-11-12T13:59:12;6.82;;;2.78;;
74793;SDS011;63320;50.768;6.724;2022-11-12T14:01:38;7.03;;;2.50;;
74793;SDS011;63320;50.768;6.724;2022-11-12T14:04:04;7.60;;;2.70;;
74793;SDS011;63320;50.768;6.724;2022-11-12T14:06:35;6.30;;;2.60;;
74793;SDS011;63320;50.768;6.724;2022-11-12T14:12:06;5.95;;;2.33;;
74793;SDS011;63320;50.768;6.724;2022-11-12T14:14:46;5.20;;;2.72;;
74793;SDS011;63320;50.768;6.724;2022-11-12T14:17:33;5.00;;;2.50;;
74793;SDS011;63320;50.768;6.724;2022-11-12T14:20:11;7.53;;;2.90;;
74793;SDS011;63320;50.768;6.724;2022-11-12T14:22:46;5.95;;;2.90;;
74793;SDS011;63320;50.768;6.724;2022-11-12T14:25:13;5.43;;;2.78;;
74793;SDS011;63320;50.768;6.724;2022-11-12T14:27:41;7.75;;;2.65;;
74793;SDS011;63320;50.768;6.724;2022-11-12T14:30:11;5.55;;;2.70;;
74793;SDS011;63320;50.768;6.724;2022-11-12T14:32:39;5.55;;;2.70;;
74793;SDS011;63320;50.768;6.724;2022-11-12T14:35:16;5.45;;;2.47;;
74793;SDS011;63320;50.768;6.724;2022-11-12T14:37:54;4.63;;;2.30;;
74793;SDS011;63320;50.768;6.724;2022-11-12T14:40:23;6.10;;;2.20;;
74793;SDS011;63320;50.768;6.724;2022-11-12T14:42:49;5.25;;;2.00;;
74793;SDS011;63320;50.768;6.724;2022-11-12T14:45:16;5.10;;;2.00;;
74793;SDS011;63320;50.768;6.724;2022-11-12T14:47:43;7.03;;;2.22;;
74793;SDS011;63320;50.768;6.724;2022-11-12T14:50:11;7.38;;;2.30;;
74793;SDS011;63320;50.768;6.724;2022-11-12T14:52:41;5.13;;;2.00;;
74793;SDS011;63320;50.768;6.724;2022-11-12T14:55:12;6.47;;;2.10;;
74793;SDS011;63320;50.768;6.724;2022-11-12T14:57:41;6.88;;;2.53;;
74793;SDS011;63320;50.768;6.724;2022-11-12T15:00:16;5.38;;;2.10;;
74793;SDS011;63320;50.768;6.724;2022-11-12T15:02:43;5.28;;;1.95;;
74793;SDS011;63320;50.768;6.724;2022-11-12T15:05:11;6.15;;;2.50;;
74793;SDS011;63320;50.768;6.724;2022-11-12T15:07:49;5.43;;;2.28;;
74793;SDS011;63320;50.768;6.724;2022-11-12T15:10:31;4.63;;;2.20;;
74793;SDS011;63320;50.768;6.724;2022-11-12T15:13:00;6.10;;;2.40;;
74793;SDS011;63320;50.768;6.724;2022-11-12T15:15:27;4.78;;;2.05;;
74793;SDS011;63320;50.768;6.724;2022-11-12T15:17:56;5.35;;;2.42;;
74793;SDS011;63320;50.768;6.724;2022-11-12T15:20:22;5.68;;;2.40;;
74793;SDS011;63320;50.768;6.724;2022-11-12T15:22:48;5.70;;;2.53;;
74793;SDS011;63320;50.768;6.724;2022-11-12T15:25:17;6.30;;;2.53;;
74793;SDS011;63320;50.768;6.724;2022-11-12T15:27:46;5.85;;;2.85;;
74793;SDS011;63320;50.768;6.724;2022-11-12T15:30:16;5.15;;;2.60;;
74793;SDS011;63320;50.768;6.724;2022-11-12T15:32:43;5.15;;;2.67;;
74793;SDS011;63320;50.768;6.724;2022-11-12T15:35:19;7.88;;;2.97;;
74793;SDS011;63320;50.768;6.724;2022-11-12T15:37:55;6.07;;;3.10;;
74793;SDS011;63320;50.768;6.724;2022-11-12T15:40:24;7.35;;;3.15;;
74793;SDS011;63320;50.768;6.724;2022-11-12T15:42:50;6.70;;;3.80;;
74793;SDS011;63320;50.768;6.724;2022-11-12T15:45:17;10.35;;;3.20;;
74793;SDS011;63320;50.768;6.724;2022-11-12T15:47:43;6.60;;;3.20;;
74793;SDS011;63320;50.768;6.724;2022-11-12T15:50:13;9.38;;;3.67;;
74793;SDS011;63320;50.768;6.724;2022-11-12T15:52:40;7.75;;;3.25;;
74793;SDS011;63320;50.768;6.724;2022-11-12T15:55:06;7.22;;;3.50;;
74793;SDS011;63320;50.768;6.724;2022-11-12T15:57:33;9.85;;;3.85;;
74793;SDS011;63320;50.768;6.724;2022-11-12T16:00:09;6.95;;;3.40;;
74793;SDS011;63320;50.768;6.724;2022-11-12T16:02:38;6.40;;;3.03;;
74793;SDS011;63320;50.768;6.724;2022-11-12T16:05:04;8.85;;;4.05;;
74793;SDS011;63320;50.768;6.724;2022-11-12T16:07:35;7.60;;;3.30;;
74793;SDS011;63320;50.768;6.724;2022-11-12T16:10:01;7.53;;;3.40;;
74793;SDS011;63320;50.768;6.724;2022-11-12T16:12:26;6.32;;;3.90;;
74793;SDS011;63320;50.768;6.724;2022-11-12T16:14:51;8.95;;;3.85;;
74793;SDS011;63320;50.768;6.724;2022-11-12T16:17:24;8.48;;;3.72;;
74793;SDS011;63320;50.768;6.724;2022-11-12T16:19:49;6.95;;;3.60;;
74793;SDS011;63320;50.768;6.724;2022-11-12T16:22:14;9.48;;;4.13;;
74793;SDS011;63320;50.768;6.724;2022-11-12T16:24:40;7.95;;;4.40;;
74793;SDS011;63320;50.768;6.724;2022-11-12T16:27:06;8.05;;;4.13;;
74793;SDS011;63320;50.768;6.724;2022-11-12T16:29:35;7.95;;;4.10;;
74793;SDS011;63320;50.768;6.724;2022-11-12T16:32:00;7.93;;;4.35;;
74793;SDS011;63320;50.768;6.724;2022-11-12T16:34:27;7.88;;;4.50;;
74793;SDS011;63320;50.768;6.724;2022-11-12T16:36:52;9.18;;;4.95;;
74793;SDS011;63320;50.768;6.724;2022-11-12T16:39:18;9.50;;;4.55;;
74793;SDS011;63320;50.768;6.724;2022-11-12T16:41:43;8.95;;;4.72;;
74793;SDS011;63320;50.768;6.724;2022-11-12T16:44:08;8.43;;;4.68;;
74793;SDS011;63320;50.768;6.724;2022-11-12T16:46:34;8.93;;;4.50;;
74793;SDS011;63320;50.768;6.724;2022-11-12T16:49:01;8.80;;;4.97;;
74793;SDS011;63320;50.768;6.724;2022-11-12T16:51:27;9.57;;;4.93;;
74793;SDS011;63320;50.768;6.724;2022-11-12T16:53:53;10.27;;;5.28;;
74793;SDS011;63320;50.768;6.724;2022-11-12T16:56:19;10.85;;;4.88;;
74793;SDS011;63320;50.768;6.724;2022-11-12T16:58:46;10.93;;;5.57;;
74793;SDS011;63320;50.768;6.724;2022-11-12T17:01:13;9.50;;;5.20;;
74793;SDS011;63320;50.768;6.724;2022-11-12T17:03:44;8.23;;;4.82;;
74793;SDS011;63320;50.768;6.724;2022-11-12T17:06:11;10.40;;;5.25;;
74793;SDS011;63320;50.768;6.724;2022-11-12T17:08:37;9.63;;;5.25;;
74793;SDS011;63320;50.768;6.724;2022-11-12T17:11:06;10.82;;;6.15;;
74793;SDS011;63320;50.768;6.724;2022-11-12T17:13:32;9.68;;;6.10;;
74793;SDS011;63320;50.768;6.724;2022-11-12T17:15:57;9.70;;;5.95;;
74793;SDS011;63320;50.768;6.724;2022-11-12T17:18:23;11.40;;;6.50;;
74793;SDS011;63320;50.768;6.724;2022-11-12T17:20:48;11.70;;;6.10;;
74793;SDS011;63320;50.768;6.724;2022-11-12T17:23:13;11.05;;;5.72;;
74793;SDS011;63320;50.768;6.724;2022-11-12T17:25:40;11.27;;;6.80;;
74793;SDS011;63320;50.768;6.724;2022-11-12T17:28:05;15.25;;;6.85;;
74793;SDS011;63320;50.768;6.724;2022-11-12T17:30:31;13.52;;;6.95;;
74793;SDS011;63320;50.768;6.724;2022-11-12T17:32:57;10.10;;;5.90;;
74793;SDS011;63320;50.768;6.724;2022-11-12T17:35:23;10.35;;;5.40;;
74793;SDS011;63320;50.768;6.724;2022-11-12T17:37:48;9.77;;;5.95;;
74793;SDS011;63320;50.768;6.724;2022-11-12T17:40:13;9.57;;;6.53;;
74793;SDS011;63320;50.768;6.724;2022-11-12T17:42:40;11.05;;;6.70;;
74793;SDS011;63320;50.768;6.724;2022-11-12T17:45:06;9.65;;;5.57;;
74793;SDS011;63320;50.768;6.724;2022-11-12T17:47:32;8.88;;;5.18;;
74793;SDS011;63320;50.768;6.724;2022-11-12T17:49:57;7.60;;;4.72;;
74793;SDS011;63320;50.768;6.724;2022-11-12T17:52:23;9.77;;;4.70;;
74793;SDS011;63320;50.768;6.724;2022-11-12T17:54:48;9.10;;;4.78;;
74793;SDS011;63320;50.768;6.724;2022-11-12T17:57:13;8.18;;;4.55;;
74793;SDS011;63320;50.768;6.724;2022-11-12T17:59:40;8.40;;;4.88;;
74793;SDS011;63320;50.768;6.724;2022-11-12T18:02:05;8.63;;;4.85;;
74793;SDS011;63320;50.768;6.724;2022-11-12T18:04:31;11.35;;;6.70;;
74793;SDS011;63320;50.768;6.724;2022-11-12T18:06:56;16.55;;;10.27;;
74793;SDS011;63320;50.768;6.724;2022-11-12T18:09:21;22.50;;;11.15;;
74793;SDS011;63320;50.768;6.724;2022-11-12T18:11:48;19.73;;;10.68;;
74793;SDS011;63320;50.768;6.724;2022-11-12T18:14:15;22.60;;;12.52;;
74793;SDS011;63320;50.768;6.724;2022-11-12T18:16:42;15.80;;;9.20;;
74793;SDS011;63320;50.768;6.724;2022-11-12T18:19:08;11.20;;;6.28;;
74793;SDS011;63320;50.768;6.724;2022-11-12T18:21:34;8.20;;;5.00;;
74793;SDS011;63320;50.768;6.724;2022-11-12T18:23:59;6.88;;;4.47;;
74793;SDS011;63320;50.768;6.724;2022-11-12T18:26:24;7.65;;;4.20;;
74793;SDS011;63320;50.768;6.724;2022-11-12T18:28:50;8.20;;;4.18;;
74793;SDS011;63320;50.768;6.724;2022-11-12T18:31:15;8.02;;;4.20;;
74793;SDS011;63320;50.768;6.724;2022-11-12T18:33:42;8.82;;;4.15;;
74793;SDS011;63320;50.768;6.724;2022-11-12T18:36:09;7.47;;;4.30;;
74793;SDS011;63320;50.768;6.724;2022-11-12T18:38:35;7.82;;;4.35;;
74793;SDS011;63320;50.768;6.724;2022-11-12T18:41:01;9.43;;;4.47;;
74793;SDS011;63320;50.768;6.724;2022-11-12T18:43:28;7.90;;;4.47;;
74793;SDS011;63320;50.768;6.724;2022-11-12T18:45:53;8.52;;;4.70;;
74793;SDS011;63320;50.768;6.724;2022-11-12T18:48:19;7.20;;;4.05;;
74793;SDS011;63320;50.768;6.724;2022-11-12T18:50:45;7.53;;;4.53;;
74793;SDS011;63320;50.768;6.724;2022-11-12T18:53:11;9.43;;;5.22;;
74793;SDS011;63320;50.768;6.724;2022-11-12T18:55:36;8.02;;;5.15;;
74793;SDS011;63320;50.768;6.724;2022-11-12T18:58:01;7.82;;;4.85;;
74793;SDS011;63320;50.768;6.724;2022-11-12T19:00:27;8.20;;;4.85;;
74793;SDS011;63320;50.768;6.724;2022-11-12T19:02:52;7.97;;;4.63;;
74793;SDS011;63320;50.768;6.724;2022-11-12T19:05:17;7.60;;;4.47;;
74793;SDS011;63320;50.768;6.724;2022-11-12T19:07:44;8.02;;;4.85;;
74793;SDS011;63320;50.768;6.724;2022-11-12T19:10:09;8.38;;;4.95;;
74793;SDS011;63320;50.768;6.724;2022-11-12T19:12:35;7.93;;;4.88;;
74793;SDS011;63320;50.768;6.724;2022-11-12T19:15:00;9.00;;;5.10;;
74793;SDS011;63320;50.768;6.724;2022-11-12T19:17:25;9.13;;;5.47;;
74793;SDS011;63320;50.768;6.724;2022-11-12T19:19:51;10.82;;;6.43;;
74793;SDS011;63320;50.768;6.724;2022-11-12T19:22:16;11.50;;;7.25;;
74793;SDS011;63320;50.768;6.724;2022-11-12T19:24:43;16.40;;;10.30;;
74793;SDS011;63320;50.768;6.724;2022-11-12T19:27:08;17.05;;;10.60;;
74793;SDS011;63320;50.768;6.724;2022-11-12T19:29:33;18.38;;;10.55;;
74793;SDS011;63320;50.768;6.724;2022-11-12T19:31:59;13.98;;;8.52;;
74793;SDS011;63320;50.768;6.724;2022-11-12T19:34:24;10.45;;;6.40;;
74793;SDS011;63320;50.768;6.724;2022-11-12T19:36:49;11.15;;;6.53;;
74793;SDS011;63320;50.768;6.724;2022-11-12T19:39:15;10.75;;;6.82;;
74793;SDS011;63320;50.768;6.724;2022-11-12T19:41:41;10.80;;;7.03;;
74793;SDS011;63320;50.768;6.724;2022-11-12T19:44:07;10.43;;;7.00;;
74793;SDS011;63320;50.768;6.724;2022-11-12T19:46:32;14.18;;;6.63;;
74793;SDS011;63320;50.768;6.724;2022-11-12T19:48:57;10.63;;;6.78;;
74793;SDS011;63320;50.768;6.724;2022-11-12T19:51:23;11.15;;;6.85;;
74793;SDS011;63320;50.768;6.724;2022-11-12T19:53:48;11.80;;;6.90;;
74793;SDS011;63320;50.768;6.724;2022-11-12T19:56:14;12.38;;;6.50;;
74793;SDS011;63320;50.768;6.724;2022-11-12T19:58:44;11.18;;;6.88;;
74793;SDS011;63320;50.768;6.724;2022-11-12T20:01:10;10.82;;;6.13;;
74793;SDS011;63320;50.768;6.724;2022-11-12T20:03:37;11.35;;;6.90;;
74793;SDS011;63320;50.768;6.724;2022-11-12T20:06:03;9.85;;;6.82;;
74793;SDS011;63320;50.768;6.724;2022-11-12T20:08:30;11.60;;;6.85;;
74793;SDS011;63320;50.768;6.724;2022-11-12T20:10:55;10.15;;;6.55;;
74793;SDS011;63320;50.768;6.724;2022-11-12T20:13:21;10.77;;;6.97;;
74793;SDS011;63320;50.768;6.724;2022-11-12T20:15:48;9.32;;;6.20;;
74793;SDS011;63320;50.768;6.724;2022-11-12T20:18:13;10.10;;;5.80;;
74793;SDS011;63320;50.768;6.724;2022-11-12T20:20:39;11.00;;;6.32;;
74793;SDS011;63320;50.768;6.724;2022-11-12T20:23:04;9.88;;;6.32;;
74793;SDS011;63320;50.768;6.724;2022-11-12T20:25:29;10.77;;;6.50;;
74793;SDS011;63320;50.768;6.724;2022-11-12T20:27:54;9.38;;;5.55;;
74793;SDS011;63320;50.768;6.724;2022-11-12T20:30:20;10.98;;;5.55;;
74793;SDS011;63320;50.768;6.724;2022-11-12T20:32:46;10.23;;;5.90;;
74793;SDS011;63320;50.768;6.724;2022-11-12T20:35:12;9.02;;;5.88;;
74793;SDS011;63320;50.768;6.724;2022-11-12T20:37:37;9.40;;;5.57;;
74793;SDS011;63320;50.768;6.724;2022-11-12T20:40:03;10.43;;;6.03;;
74793;SDS011;63320;50.768;6.724;2022-11-12T20:42:29;7.88;;;5.28;;
74793;SDS011;63320;50.768;6.724;2022-11-12T20:44:54;8.30;;;5.30;;
74793;SDS011;63320;50.768;6.724;2022-11-12T20:47:19;8.75;;;4.90;;
74793;SDS011;63320;50.768;6.724;2022-11-12T20:49:46;8.52;;;5.20;;
74793;SDS011;63320;50.768;6.724;2022-11-12T20:52:11;9.32;;;5.88;;
74793;SDS011;63320;50.768;6.724;2022-11-12T20:54:37;9.88;;;5.75;;
74793;SDS011;63320;50.768;6.724;2022-11-12T20:57:02;11.65;;;5.55;;
74793;SDS011;63320;50.768;6.724;2022-11-12T20:59:27;8.55;;;5.40;;
74793;SDS011;63320;50.768;6.724;2022-11-12T21:01:53;8.63;;;5.30;;
74793;SDS011;63320;50.768;6.724;2022-11-12T21:04:18;8.93;;;4.80;;
74793;SDS011;63320;50.768;6.724;2022-11-12T21:06:45;12.80;;;5.35;;
74793;SDS011;63320;50.768;6.724;2022-11-12T21:09:10;8.90;;;5.65;;
74793;SDS011;63320;50.768;6.724;2022-11-12T21:11:35;9.70;;;5.32;;
74793;SDS011;63320;50.768;6.724;2022-11-12T21:14:01;8.32;;;5.28;;
74793;SDS011;63320;50.768;6.724;2022-11-12T21:16:26;9.25;;;5.25;;
74793;SDS011;63320;50.768;6.724;2022-11-12T21:18:51;9.55;;;5.22;;
74793;SDS011;63320;50.768;6.724;2022-11-12T21:21:17;9.23;;;6.13;;
74793;SDS011;63320;50.768;6.724;2022-11-12T21:23:44;8.82;;;5.72;;
74793;SDS011;63320;50.768;6.724;2022-11-12T21:26:10;9.07;;;5.60;;
74793;SDS011;63320;50.768;6.724;2022-11-12T21:28:36;13.93;;;8.30;;
74793;SDS011;63320;50.768;6.724;2022-11-12T21:31:02;15.18;;;9.05;;
74793;SDS011;63320;50.768;6.724;2022-11-12T21:33:29;13.18;;;8.63;;
74793;SDS011;63320;50.768;6.724;2022-11-12T21:35:54;10.77;;;7.07;;
74793;SDS011;63320;50.768;6.724;2022-11-12T21:38:21;10.32;;;5.80;;
74793;SDS011;63320;50.768;6.724;2022-11-12T21:40:48;9.90;;;5.43;;
74793;SDS011;63320;50.768;6.724;2022-11-12T21:43:13;8.07;;;5.20;;
74793;SDS011;63320;50.768;6.724;2022-11-12T21:45:42;8.98;;;5.13;;
74793;SDS011;63320;50.768;6.724;2022-11-12T21:48:08;8.27;;;5.00;;
74793;SDS011;63320;50.768;6.724;2022-11-12T21:50:34;7.72;;;4.88;;
74793;SDS011;63320;50.768;6.724;2022-11-12T21:52:59;8.07;;;5.20;;
74793;SDS011;63320;50.768;6.724;2022-11-12T21:55:24;8.35;;;5.00;;
74793;SDS011;63320;50.768;6.724;2022-11-12T21:57:51;10.00;;;5.20;;
74793;SDS011;63320;50.768;6.724;2022-11-12T22:00:16;8.27;;;4.80;;
74793;SDS011;63320;50.768;6.724;2022-11-12T22:02:42;9.68;;;5.30;;
74793;SDS011;63320;50.768;6.724;2022-11-12T22:05:07;8.30;;;5.10;;
74793;SDS011;63320;50.768;6.724;2022-11-12T22:07:33;9.30;;;5.65;;
74793;SDS011;63320;50.768;6.724;2022-11-12T22:09:58;9.50;;;6.30;;
74793;SDS011;63320;50.768;6.724;2022-11-12T22:12:23;8.77;;;5.60;;
74793;SDS011;63320;50.768;6.724;2022-11-12T22:14:50;10.50;;;5.95;;
74793;SDS011;63320;50.768;6.724;2022-11-12T22:17:15;9.13;;;5.88;;
74793;SDS011;63320;50.768;6.724;2022-11-12T22:19:41;10.10;;;5.93;;
74793;SDS011;63320;50.768;6.724;2022-11-12T22:22:06;10.93;;;5.25;;
74793;SDS011;63320;50.768;6.724;2022-11-12T22:24:31;9.65;;;5.90;;
74793;SDS011;63320;50.768;6.724;2022-11-12T22:26:57;9.15;;;5.63;;
74793;SDS011;63320;50.768;6.724;2022-11-12T22:29:22;10.32;;;5.78;;
74793;SDS011;63320;50.768;6.724;2022-11-12T22:31:49;9.38;;;5.63;;
74793;SDS011;63320;50.768;6.724;2022-11-12T22:34:14;11.02;;;6.32;;
74793;SDS011;63320;50.768;6.724;2022-11-12T22:36:39;9.15;;;5.72;;
74793;SDS011;63320;50.768;6.724;2022-11-12T22:39:05;10.20;;;5.82;;
74793;SDS011;63320;50.768;6.724;2022-11-12T22:41:30;9.88;;;6.45;;
74793;SDS011;63320;50.768;6.724;2022-11-12T22:43:56;10.85;;;6.80;;
74793;SDS011;63320;50.768;6.724;2022-11-12T22:46:24;9.95;;;6.03;;
74793;SDS011;63320;50.768;6.724;2022-11-12T22:48:51;10.52;;;6.38;;
74793;SDS011;63320;50.768;6.724;2022-11-12T22:51:18;11.23;;;6.50;;
74793;SDS011;63320;50.768;6.724;2022-11-12T22:53:45;9.02;;;5.45;;
74793;SDS011;63320;50.768;6.724;2022-11-12T22:56:11;9.77;;;5.30;;
74793;SDS011;63320;50.768;6.724;2022-11-12T22:58:38;10.25;;;5.63;;
74793;SDS011;63320;50.768;6.724;2022-11-12T23:01:05;10.90;;;5.60;;
74793;SDS011;63320;50.768;6.724;2022-11-12T23:03:33;8.45;;;5.00;;
74793;SDS011;63320;50.768;6.724;2022-11-12T23:06:01;11.07;;;5.30;;
74793;SDS011;63320;50.768;6.724;2022-11-12T23:08:28;8.57;;;5.60;;
74793;SDS011;63320;50.768;6.724;2022-11-12T23:10:54;9.07;;;5.85;;
74793;SDS011;63320;50.768;6.724;2022-11-12T23:13:20;9.48;;;5.55;;
74793;SDS011;63320;50.768;6.724;2022-11-12T23:15:46;9.45;;;5.75;;
74793;SDS011;63320;50.768;6.724;2022-11-12T23:18:11;8.45;;;4.93;;
74793;SDS011;63320;50.768;6.724;2022-11-12T23:20:37;8.88;;;4.95;;
74793;SDS011;63320;50.768;6.724;2022-11-12T23:23:03;8.55;;;5.22;;
74793;SDS011;63320;50.768;6.724;2022-11-12T23:25:31;9.80;;;5.50;;
74793;SDS011;63320;50.768;6.724;2022-11-12T23:27:57;8.95;;;5.50;;
74793;SDS011;63320;50.768;6.724;2022-11-12T23:30:22;8.55;;;5.40;;
74793;SDS011;63320;50.768;6.724;2022-11-12T23:32:47;10.10;;;5.60;;
74793;SDS011;63320;50.768;6.724;2022-11-12T23:35:13;8.23;;;5.30;;
74793;SDS011;63320;50.768;6.724;2022-11-12T23:37:38;8.27;;;4.82;;
74793;SDS011;63320;50.768;6.724;2022-11-12T23:40:06;8.45;;;4.90;;
74793;SDS011;63320;50.768;6.724;2022-11-12T23:42:32;8.70;;;4.97;;
74793;SDS011;63320;50.768;6.724;2022-11-12T23:44:58;11.15;;;5.38;;
74793;SDS011;63320;50.768;6.724;2022-11-12T23:47:23;8.73;;;5.40;;
74793;SDS011;63320;50.768;6.724;2022-11-12T23:49:48;9.85;;;5.40;;
74793;SDS011;63320;50.768;6.724;2022-11-12T23:52:14;9.05;;;5.80;;
74793;SDS011;63320;50.768;6.724;2022-11-12T23:54:39;11.07;;;7.32;;
74793;SDS011;63320;50.768;6.724;2022-11-12T23:57:06;13.98;;;8.93;;
74793;SDS011;63320;50.768;6.724;2022-11-12T23:59:31;15.85;;;9.90;;
